createdAt,value
2023-12-21T00:01:26.097Z,36.75
2023-12-21T00:03:54.181Z,37.92
2023-12-21T00:06:21.753Z,34.83
2023-12-21T00:08:49.261Z,34.33
2023-12-21T00:11:17.057Z,30.55
2023-12-21T00:13:45.784Z,31.15
2023-12-21T00:16:13.821Z,37.45
2023-12-21T00:18:41.828Z,33.35
2023-12-21T00:21:09.455Z,28.17
2023-12-21T00:23:36.953Z,33.45
2023-12-21T00:26:04.843Z,31.83
2023-12-21T00:28:32.509Z,30.80
2023-12-21T00:31:00.278Z,33.28
2023-12-21T00:33:28.386Z,32.93
2023-12-21T00:35:55.952Z,29.23
2023-12-21T00:38:23.484Z,37.88
2023-12-21T00:40:51.544Z,32.00
2023-12-21T00:43:19.030Z,34.22
2023-12-21T00:45:46.579Z,32.67
2023-12-21T00:48:16.270Z,26.80
2023-12-21T00:50:44.134Z,31.67
2023-12-21T00:53:11.662Z,32.45
2023-12-21T00:55:39.572Z,30.73
2023-12-21T00:58:07.127Z,32.13
2023-12-21T01:00:34.615Z,33.15
2023-12-21T01:03:02.558Z,38.58
2023-12-21T01:05:30.091Z,31.10
2023-12-21T01:07:57.630Z,32.05
2023-12-21T01:10:25.466Z,37.20
2023-12-21T01:12:53.252Z,33.60
2023-12-21T01:15:20.811Z,34.72
2023-12-21T01:17:48.937Z,31.30
2023-12-21T01:20:16.864Z,31.77
2023-12-21T01:22:44.539Z,33.07
2023-12-21T01:25:12.489Z,31.12
2023-12-21T01:27:40.020Z,31.83
2023-12-21T01:30:08.378Z,30.88
2023-12-21T01:32:36.273Z,28.95
2023-12-21T01:35:04.025Z,29.33
2023-12-21T01:37:31.745Z,29.42
2023-12-21T01:39:59.684Z,28.08
2023-12-21T01:42:27.241Z,29.17
2023-12-21T01:44:54.861Z,28.42
2023-12-21T01:47:23.044Z,28.83
2023-12-21T01:49:51.009Z,27.87
2023-12-21T01:52:19.915Z,28.62
2023-12-21T01:54:47.879Z,30.85
2023-12-21T01:57:16.150Z,27.10
2023-12-21T01:59:44.000Z,28.50
2023-12-21T02:02:11.929Z,28.75
2023-12-21T02:04:40.201Z,33.55
2023-12-21T02:07:07.963Z,34.35
2023-12-21T02:09:35.561Z,28.23
2023-12-21T02:12:03.582Z,31.40
2023-12-21T02:14:31.122Z,29.52
2023-12-21T02:17:03.361Z,30.23
2023-12-21T02:19:31.553Z,33.17
2023-12-21T02:22:03.284Z,37.97
2023-12-21T02:24:31.826Z,32.10
2023-12-21T02:27:00.591Z,35.63
2023-12-21T02:29:28.236Z,35.13
2023-12-21T02:31:56.321Z,34.00
2023-12-21T02:34:24.149Z,33.33
2023-12-21T02:36:51.925Z,29.47
2023-12-21T02:39:19.803Z,34.10
2023-12-21T02:41:49.107Z,34.17
2023-12-21T02:44:16.694Z,32.60
2023-12-21T02:46:44.553Z,38.97
2023-12-21T02:49:12.189Z,33.40
2023-12-21T02:51:39.733Z,35.88
2023-12-21T02:54:07.638Z,35.17
2023-12-21T02:56:35.201Z,34.22
2023-12-21T02:59:02.760Z,35.15
2023-12-21T03:01:30.665Z,33.97
2023-12-21T03:04:01.361Z,36.55
2023-12-21T03:06:28.956Z,34.30
2023-12-21T03:08:56.793Z,34.38
2023-12-21T03:11:24.384Z,30.23
2023-12-21T03:13:51.929Z,33.27
2023-12-21T03:16:20.128Z,34.17
2023-12-21T03:18:48.219Z,35.28
2023-12-21T03:21:16.476Z,31.08
2023-12-21T03:23:44.456Z,31.00
2023-12-21T03:26:12.413Z,34.73
2023-12-21T03:28:45.972Z,28.58
2023-12-21T03:31:18.154Z,34.45
2023-12-21T03:33:45.807Z,32.85
2023-12-21T03:36:14.141Z,31.70
2023-12-21T03:38:41.990Z,32.10
2023-12-21T03:41:09.594Z,35.22
2023-12-21T03:43:37.649Z,38.90
2023-12-21T03:46:09.298Z,42.95
2023-12-21T03:48:36.896Z,40.95
2023-12-21T03:51:05.001Z,41.87
2023-12-21T03:53:32.519Z,41.05
2023-12-21T03:55:59.977Z,49.78
2023-12-21T03:58:27.812Z,44.05
2023-12-21T04:00:55.508Z,32.78
2023-12-21T04:03:23.400Z,28.73
2023-12-21T04:05:51.349Z,24.10
2023-12-21T04:08:22.584Z,22.13
2023-12-21T04:10:50.573Z,26.92
2023-12-21T04:13:18.184Z,22.73
2023-12-21T04:15:45.715Z,28.67
2023-12-21T04:18:13.628Z,27.87
2023-12-21T04:20:41.170Z,31.02
2023-12-21T04:23:08.713Z,27.00
2023-12-21T04:25:36.700Z,26.80
2023-12-21T04:28:04.437Z,27.77
2023-12-21T04:30:31.974Z,31.25
2023-12-21T04:32:59.872Z,26.42
2023-12-21T04:35:27.486Z,31.73
2023-12-21T04:37:55.126Z,31.67
2023-12-21T04:40:22.948Z,30.50
2023-12-21T04:42:56.598Z,28.80
2023-12-21T04:45:24.711Z,26.95
2023-12-21T04:47:52.620Z,26.00
2023-12-21T04:50:21.359Z,29.65
2023-12-21T04:52:49.614Z,28.27
2023-12-21T04:55:17.744Z,25.67
2023-12-21T04:57:45.407Z,20.05
2023-12-21T05:00:13.723Z,20.27
2023-12-21T05:02:41.267Z,29.45
2023-12-21T05:05:08.969Z,27.93
2023-12-21T05:07:37.926Z,28.45
2023-12-21T05:10:06.732Z,23.90
2023-12-21T05:12:34.445Z,24.95
2023-12-21T05:15:02.322Z,26.77
2023-12-21T05:17:29.932Z,28.17
2023-12-21T05:19:57.566Z,28.08
2023-12-21T05:22:25.861Z,27.00
2023-12-21T05:24:53.459Z,26.08
2023-12-21T05:27:21.129Z,25.55
2023-12-21T05:29:48.985Z,26.73
2023-12-21T05:32:16.561Z,30.25
2023-12-21T05:34:44.293Z,26.42
2023-12-21T05:37:12.185Z,26.02
2023-12-21T05:39:40.501Z,21.60
2023-12-21T05:42:08.073Z,18.53
2023-12-21T05:44:35.986Z,19.90
2023-12-21T05:47:04.562Z,15.32
2023-12-21T05:49:32.134Z,20.60
2023-12-21T05:52:00.859Z,20.73
2023-12-21T05:54:28.781Z,19.13
2023-12-21T05:56:56.344Z,19.73
2023-12-21T05:59:24.170Z,19.92
2023-12-21T06:01:51.773Z,22.77
2023-12-21T06:04:19.794Z,32.40
2023-12-21T06:06:48.451Z,28.50
2023-12-21T06:09:16.364Z,22.20
2023-12-21T06:11:44.925Z,20.88
2023-12-21T06:14:13.359Z,20.45
2023-12-21T06:16:40.989Z,20.08
2023-12-21T06:19:12.029Z,19.63
2023-12-21T06:21:39.899Z,19.48
2023-12-21T06:24:08.115Z,20.40
2023-12-21T06:26:42.442Z,21.92
2023-12-21T06:29:10.971Z,18.67
2023-12-21T06:31:39.188Z,25.07
2023-12-21T06:34:06.953Z,15.18
2023-12-21T06:36:35.031Z,17.58
2023-12-21T06:39:03.927Z,21.50
2023-12-21T06:41:31.467Z,19.20
2023-12-21T06:43:59.074Z,21.17
2023-12-21T06:46:27.081Z,19.17
2023-12-21T06:48:54.741Z,19.87
2023-12-21T06:51:22.330Z,16.08
2023-12-21T06:53:50.675Z,18.35
2023-12-21T06:56:29.273Z,20.33
2023-12-21T06:59:03.549Z,16.62
2023-12-21T07:01:31.382Z,18.02
2023-12-21T07:03:59.906Z,17.70
2023-12-21T07:06:27.879Z,17.75
2023-12-21T07:08:56.245Z,14.60
2023-12-21T07:11:24.529Z,17.33
2023-12-21T07:13:52.467Z,18.40
2023-12-21T07:16:20.927Z,17.83
2023-12-21T07:18:48.612Z,17.33
2023-12-21T07:21:16.499Z,23.23
2023-12-21T07:23:44.064Z,21.23
2023-12-21T07:26:12.320Z,20.33
2023-12-21T07:28:41.839Z,20.48
2023-12-21T07:31:11.570Z,26.48
2023-12-21T07:33:39.251Z,34.30
2023-12-21T07:36:08.847Z,30.50
2023-12-21T07:38:37.961Z,20.90
2023-12-21T07:41:05.514Z,19.75
2023-12-21T07:43:33.390Z,20.77
2023-12-21T07:46:01.036Z,24.93
2023-12-21T07:48:28.731Z,22.60
2023-12-21T07:50:56.619Z,21.60
2023-12-21T07:53:24.154Z,21.37
2023-12-21T07:55:51.767Z,22.17
2023-12-21T07:58:19.788Z,21.77
2023-12-21T08:00:47.832Z,23.17
2023-12-21T08:03:15.784Z,29.98
2023-12-21T08:05:43.487Z,24.42
2023-12-21T08:08:10.975Z,27.08
2023-12-21T08:10:38.934Z,25.60
2023-12-21T08:13:09.671Z,25.58
2023-12-21T08:15:37.215Z,22.05
2023-12-21T08:18:06.411Z,21.50
2023-12-21T08:20:37.976Z,20.05
2023-12-21T08:23:05.780Z,19.47
2023-12-21T08:25:33.447Z,19.30
2023-12-21T08:28:01.148Z,17.17
2023-12-21T08:30:29.204Z,21.65
2023-12-21T08:32:56.913Z,19.37
2023-12-21T08:35:24.533Z,20.50
2023-12-21T08:37:52.433Z,21.80
2023-12-21T08:40:20.024Z,19.95
2023-12-21T08:42:47.835Z,23.23
2023-12-21T08:45:15.823Z,23.35
2023-12-21T08:47:43.768Z,30.60
2023-12-21T08:50:12.888Z,23.95
2023-12-21T08:52:42.939Z,27.33
2023-12-21T08:55:10.964Z,22.85
2023-12-21T08:57:38.706Z,19.90
2023-12-21T09:00:09.622Z,18.37
2023-12-21T09:02:38.729Z,20.05
2023-12-21T09:05:07.726Z,18.45
2023-12-21T09:07:35.580Z,19.12
2023-12-21T09:10:04.940Z,20.20
2023-12-21T09:12:33.013Z,20.57
2023-12-21T09:15:00.612Z,20.30
2023-12-21T09:17:28.306Z,19.25
2023-12-21T09:19:56.281Z,19.67
2023-12-21T09:22:23.839Z,13.88
2023-12-21T09:24:51.599Z,16.83
2023-12-21T09:27:19.483Z,15.00
2023-12-21T09:29:47.015Z,14.52
2023-12-21T09:32:14.578Z,15.80
2023-12-21T09:34:42.542Z,13.40
2023-12-21T09:37:10.342Z,9.70
2023-12-21T09:39:37.877Z,12.45
2023-12-21T09:42:06.763Z,11.45
2023-12-21T09:44:35.524Z,11.50
2023-12-21T09:47:08.006Z,12.63
2023-12-21T09:49:38.555Z,9.87
2023-12-21T09:52:08.639Z,9.63
2023-12-21T09:54:37.551Z,10.77
2023-12-21T09:57:05.928Z,9.52
2023-12-21T09:59:33.714Z,7.12
2023-12-21T10:02:02.465Z,6.87
2023-12-21T10:04:33.208Z,7.18
2023-12-21T10:07:01.036Z,7.10
2023-12-21T10:09:28.567Z,5.43
2023-12-21T10:11:56.432Z,7.28
2023-12-21T10:14:27.141Z,5.50
2023-12-21T10:16:56.225Z,6.72
2023-12-21T10:19:24.159Z,6.97
2023-12-21T10:21:52.522Z,6.22
2023-12-21T10:24:20.208Z,6.70
2023-12-21T10:26:51.459Z,8.67
2023-12-21T10:29:20.295Z,6.60
2023-12-21T10:31:49.856Z,6.43
2023-12-21T10:34:17.807Z,4.72
2023-12-21T10:36:46.378Z,4.40
2023-12-21T10:39:18.260Z,8.50
2023-12-21T10:41:46.350Z,7.68
2023-12-21T10:44:19.502Z,4.82
2023-12-21T10:46:48.938Z,5.37
2023-12-21T10:49:18.613Z,4.65
2023-12-21T10:51:46.607Z,7.33
2023-12-21T10:54:14.450Z,6.68
2023-12-21T10:56:47.108Z,6.40
2023-12-21T10:59:17.142Z,6.72
2023-12-21T11:01:45.156Z,5.55
2023-12-21T11:04:14.688Z,5.27
2023-12-21T11:06:43.618Z,5.82
2023-12-21T11:09:14.176Z,8.50
2023-12-21T11:11:41.703Z,7.97
2023-12-21T11:14:09.334Z,5.18
2023-12-21T11:16:42.675Z,5.53
2023-12-21T11:19:13.615Z,4.37
2023-12-21T11:21:41.754Z,4.50
2023-12-21T11:24:10.823Z,4.70
2023-12-21T11:26:38.754Z,7.03
2023-12-21T11:29:11.658Z,3.73
2023-12-21T11:31:40.650Z,3.40
2023-12-21T11:34:15.733Z,2.53
2023-12-21T11:36:43.651Z,3.10
2023-12-21T11:39:18.073Z,3.08
2023-12-21T11:41:59.697Z,8.73
2023-12-21T11:44:37.726Z,5.15
2023-12-21T11:47:09.330Z,2.83
2023-12-21T11:49:38.666Z,4.07
2023-12-21T11:52:06.578Z,6.85
2023-12-21T11:54:35.332Z,3.53
2023-12-21T11:57:13.686Z,2.30
2023-12-21T11:59:41.333Z,3.55
2023-12-21T12:02:11.790Z,5.65
2023-12-21T12:04:40.095Z,4.70
2023-12-21T12:07:07.837Z,4.70
2023-12-21T12:09:35.657Z,2.25
2023-12-21T12:12:03.820Z,4.05
2023-12-21T12:14:31.440Z,2.70
2023-12-21T12:16:58.955Z,4.35
2023-12-21T12:19:29.802Z,2.63
2023-12-21T12:21:57.542Z,5.20
2023-12-21T12:24:25.598Z,4.35
2023-12-21T12:26:53.964Z,6.30
2023-12-21T12:29:21.836Z,3.47
2023-12-21T12:31:50.061Z,3.10
2023-12-21T12:34:18.769Z,2.78
2023-12-21T12:36:54.024Z,3.62
2023-12-21T12:39:29.016Z,2.12
2023-12-21T12:41:59.107Z,2.78
2023-12-21T12:44:27.094Z,1.87
2023-12-21T12:46:56.248Z,2.37
2023-12-21T12:49:25.110Z,2.45
2023-12-21T12:51:53.450Z,2.53
2023-12-21T12:54:21.499Z,2.05
2023-12-21T12:56:50.317Z,2.63
2023-12-21T12:59:22.064Z,7.53
2023-12-21T13:01:49.954Z,2.25
2023-12-21T13:04:17.973Z,2.30
2023-12-21T13:06:50.524Z,2.35
2023-12-21T13:09:18.928Z,2.63
2023-12-21T13:11:47.261Z,2.62
2023-12-21T13:14:16.777Z,3.15
2023-12-21T13:16:46.304Z,4.05
2023-12-21T13:19:14.153Z,3.40
2023-12-21T13:21:41.819Z,3.60
2023-12-21T13:24:10.436Z,2.58
2023-12-21T13:26:37.980Z,6.12
2023-12-21T13:29:07.606Z,2.72
2023-12-21T13:31:35.735Z,2.58
2023-12-21T13:34:04.100Z,3.93
2023-12-21T13:36:32.688Z,2.87
2023-12-21T13:39:00.560Z,3.10
2023-12-21T13:41:28.199Z,2.90
2023-12-21T13:43:55.897Z,2.97
2023-12-21T13:46:25.284Z,2.50
2023-12-21T13:48:53.216Z,3.00
2023-12-21T13:51:20.943Z,3.30
2023-12-21T13:53:48.806Z,3.08
2023-12-21T13:56:16.460Z,3.15
2023-12-21T13:58:44.050Z,3.73
2023-12-21T14:01:11.978Z,3.70
2023-12-21T14:03:40.214Z,3.72
2023-12-21T14:06:07.992Z,4.12
2023-12-21T14:08:35.984Z,5.22
2023-12-21T14:11:03.904Z,4.23
2023-12-21T14:13:31.444Z,3.80
2023-12-21T14:15:59.228Z,4.07
2023-12-21T14:18:27.120Z,4.22
2023-12-21T14:20:55.751Z,4.35
2023-12-21T14:23:23.890Z,11.43
2023-12-21T14:25:53.032Z,12.95
2023-12-21T14:28:22.032Z,21.50
2023-12-21T14:30:51.456Z,12.85
2023-12-21T14:33:19.374Z,10.30
2023-12-21T14:35:49.435Z,6.50
2023-12-21T14:38:17.436Z,7.85
2023-12-21T14:40:46.594Z,8.00
2023-12-21T14:43:14.816Z,7.25
2023-12-21T14:45:42.511Z,4.87
2023-12-21T14:48:10.572Z,5.40
2023-12-21T14:50:38.200Z,8.38
2023-12-21T14:53:05.731Z,8.23
2023-12-21T14:55:35.431Z,12.13
2023-12-21T14:58:03.118Z,9.25
2023-12-21T15:00:33.434Z,12.33
2023-12-21T15:03:03.787Z,12.60
2023-12-21T15:05:31.417Z,13.07
2023-12-21T15:07:59.091Z,8.48
2023-12-21T15:10:27.777Z,7.93
2023-12-21T15:12:55.387Z,7.53
2023-12-21T15:15:22.996Z,8.38
2023-12-21T15:17:51.173Z,5.22
2023-12-21T15:20:20.206Z,9.70
2023-12-21T15:22:47.894Z,9.65
2023-12-21T15:25:16.011Z,8.53
2023-12-21T15:27:44.713Z,8.55
2023-12-21T15:30:12.850Z,5.20
2023-12-21T15:32:40.856Z,5.43
2023-12-21T15:35:08.638Z,7.50
2023-12-21T15:37:36.364Z,10.03
2023-12-21T15:40:05.213Z,11.88
2023-12-21T15:42:32.770Z,18.90
2023-12-21T15:45:00.328Z,19.58
2023-12-21T15:47:29.452Z,13.40
2023-12-21T15:49:57.160Z,8.83
2023-12-21T15:52:24.783Z,7.25
2023-12-21T15:54:52.612Z,8.02
2023-12-21T15:57:20.143Z,6.90
2023-12-21T15:59:47.630Z,7.35
2023-12-21T16:02:15.434Z,7.73
2023-12-21T16:04:43.646Z,9.27
2023-12-21T16:07:12.650Z,9.18
2023-12-21T16:09:40.251Z,9.20
2023-12-21T16:12:08.277Z,10.57
2023-12-21T16:14:35.961Z,14.17
2023-12-21T16:17:04.292Z,10.88
2023-12-21T16:19:33.067Z,14.98
2023-12-21T16:22:00.747Z,11.63
2023-12-21T16:24:28.339Z,19.42
2023-12-21T16:26:56.247Z,17.73
2023-12-21T16:29:23.782Z,12.35
2023-12-21T16:31:52.245Z,21.30
2023-12-21T16:34:20.367Z,11.85
2023-12-21T16:36:47.934Z,24.48
2023-12-21T16:39:16.612Z,8.70
2023-12-21T16:41:45.868Z,9.35
2023-12-21T16:44:13.383Z,9.23
2023-12-21T16:46:40.932Z,9.02
2023-12-21T16:49:08.918Z,9.23
2023-12-21T16:51:36.467Z,8.77
2023-12-21T16:54:04.293Z,10.02
2023-12-21T16:56:32.300Z,9.27
2023-12-21T16:58:59.834Z,12.00
2023-12-21T17:01:27.435Z,9.52
2023-12-21T17:03:58.556Z,8.33
2023-12-21T17:06:27.083Z,15.40
2023-12-21T17:08:54.917Z,7.37
2023-12-21T17:11:23.491Z,8.77
2023-12-21T17:13:53.160Z,9.65
2023-12-21T17:16:24.255Z,9.80
2023-12-21T17:18:52.422Z,9.93
2023-12-21T17:21:20.003Z,13.70
2023-12-21T17:23:47.955Z,9.15
2023-12-21T17:26:15.499Z,10.07
2023-12-21T17:28:43.586Z,8.50
2023-12-21T17:31:11.779Z,9.02
2023-12-21T17:33:39.403Z,7.90
2023-12-21T17:36:07.231Z,9.43
2023-12-21T17:38:35.203Z,6.90
2023-12-21T17:41:02.814Z,6.50
2023-12-21T17:43:30.449Z,7.95
2023-12-21T17:46:00.670Z,11.05
2023-12-21T17:48:28.759Z,13.70
2023-12-21T17:50:56.837Z,14.18
2023-12-21T17:53:24.810Z,17.80
2023-12-21T17:55:52.567Z,14.35
2023-12-21T17:58:20.358Z,13.65
2023-12-21T18:00:48.304Z,16.85
2023-12-21T18:03:16.151Z,17.92
2023-12-21T18:05:45.392Z,19.50
2023-12-21T18:08:14.623Z,18.98
2023-12-21T18:10:42.546Z,15.75
2023-12-21T18:13:10.410Z,13.48
2023-12-21T18:15:37.985Z,17.55
2023-12-21T18:18:05.904Z,11.90
2023-12-21T18:20:33.589Z,9.10
2023-12-21T18:23:01.127Z,9.82
2023-12-21T18:25:28.958Z,13.07
2023-12-21T18:27:56.561Z,10.98
2023-12-21T18:30:24.128Z,12.37
2023-12-21T18:32:52.044Z,15.38
2023-12-21T18:35:19.705Z,16.87
2023-12-21T18:37:47.557Z,18.42
2023-12-21T18:40:15.788Z,15.50
2023-12-21T18:42:43.761Z,15.77
2023-12-21T18:45:11.422Z,14.30
2023-12-21T18:47:39.354Z,15.65
2023-12-21T18:50:07.510Z,17.05
2023-12-21T18:52:35.248Z,19.70
2023-12-21T18:55:03.658Z,17.07
2023-12-21T18:57:32.947Z,19.58
2023-12-21T19:00:00.757Z,20.40
2023-12-21T19:02:28.697Z,18.37
2023-12-21T19:04:56.352Z,18.85
2023-12-21T19:07:23.927Z,17.33
2023-12-21T19:09:51.818Z,18.27
2023-12-21T19:12:21.791Z,17.73
2023-12-21T19:14:49.424Z,16.65
2023-12-21T19:17:17.372Z,20.15
2023-12-21T19:19:45.121Z,17.70
2023-12-21T19:22:12.717Z,12.68
2023-12-21T19:24:40.587Z,14.85
2023-12-21T19:27:08.153Z,23.12
2023-12-21T19:29:35.725Z,28.08
2023-12-21T19:32:03.609Z,21.17
2023-12-21T19:34:31.230Z,20.37
2023-12-21T19:36:59.038Z,25.92
2023-12-21T19:39:26.898Z,23.12
2023-12-21T19:41:54.527Z,19.33
2023-12-21T19:44:22.157Z,16.50
2023-12-21T19:46:50.058Z,18.10
2023-12-21T19:49:17.767Z,21.65
2023-12-21T19:51:45.404Z,28.12
2023-12-21T19:54:15.170Z,32.15
2023-12-21T19:56:45.985Z,29.43
2023-12-21T19:59:20.084Z,26.40
2023-12-21T20:01:51.320Z,23.70
2023-12-21T20:04:19.491Z,22.33
2023-12-21T20:06:49.435Z,17.73
2023-12-21T20:09:17.152Z,19.77
2023-12-21T20:11:45.212Z,22.62
2023-12-21T20:14:12.922Z,28.33
2023-12-21T20:16:40.531Z,28.98
2023-12-21T20:19:08.975Z,21.12
2023-12-21T20:21:36.670Z,15.87
2023-12-21T20:24:04.404Z,18.23
2023-12-21T20:26:32.238Z,16.10
2023-12-21T20:28:59.822Z,15.18
2023-12-21T20:31:28.594Z,15.60
2023-12-21T20:33:56.502Z,14.70
2023-12-21T20:36:24.127Z,14.63
2023-12-21T20:38:51.694Z,15.82
2023-12-21T20:41:19.535Z,13.60
2023-12-21T20:43:48.405Z,15.90
2023-12-21T20:46:15.972Z,18.13
2023-12-21T20:48:43.821Z,20.90
2023-12-21T20:51:11.419Z,19.65
2023-12-21T20:53:39.091Z,16.02
2023-12-21T20:56:07.187Z,16.23
2023-12-21T20:58:36.020Z,18.90
2023-12-21T21:01:04.988Z,13.55
2023-12-21T21:03:37.947Z,19.70
2023-12-21T21:06:06.196Z,19.98
2023-12-21T21:08:34.082Z,17.10
2023-12-21T21:11:01.704Z,16.70
2023-12-21T21:13:29.537Z,14.90
2023-12-21T21:15:57.386Z,14.75
2023-12-21T21:18:24.964Z,17.17
2023-12-21T21:20:53.269Z,10.88
2023-12-21T21:23:21.082Z,16.87
2023-12-21T21:25:48.683Z,17.27
2023-12-21T21:28:16.431Z,14.93
2023-12-21T21:30:56.711Z,14.43
2023-12-21T21:33:28.348Z,15.70
2023-12-21T21:35:56.343Z,15.67
2023-12-21T21:38:23.932Z,15.45
2023-12-21T21:40:53.838Z,18.02
2023-12-21T21:43:21.758Z,14.05
2023-12-21T21:45:49.278Z,15.13
2023-12-21T21:48:17.654Z,15.43
2023-12-21T21:50:45.809Z,15.52
2023-12-21T21:53:13.379Z,15.10
2023-12-21T21:55:41.568Z,17.42
2023-12-21T21:58:09.593Z,15.85
2023-12-21T22:00:37.132Z,15.33
2023-12-21T22:03:07.275Z,21.00
2023-12-21T22:05:34.997Z,19.12
2023-12-21T22:08:02.706Z,18.05
2023-12-21T22:10:30.621Z,18.48
2023-12-21T22:12:58.189Z,20.70
2023-12-21T22:15:25.677Z,19.70
2023-12-21T22:17:53.573Z,22.30
2023-12-21T22:20:21.236Z,13.52
2023-12-21T22:22:48.744Z,14.15
2023-12-21T22:25:16.998Z,13.27
2023-12-21T22:27:44.550Z,14.20
2023-12-21T22:30:12.307Z,13.43
2023-12-21T22:32:40.422Z,12.23
2023-12-21T22:35:08.385Z,14.93
2023-12-21T22:37:35.975Z,12.90
2023-12-21T22:40:03.949Z,15.52
2023-12-21T22:42:31.460Z,13.68
2023-12-21T22:44:58.983Z,15.02
2023-12-21T22:47:26.969Z,13.48
2023-12-21T22:49:54.710Z,13.13
2023-12-21T22:52:22.266Z,14.05
2023-12-21T22:54:50.097Z,16.40
2023-12-21T22:57:17.642Z,13.20
2023-12-21T22:59:45.136Z,12.05
2023-12-21T23:02:12.975Z,13.20
2023-12-21T23:04:40.560Z,13.35
2023-12-21T23:07:09.213Z,12.65
2023-12-21T23:09:39.699Z,15.18
2023-12-21T23:12:07.971Z,11.82
2023-12-21T23:14:35.683Z,11.87
2023-12-21T23:17:04.279Z,13.77
2023-12-21T23:19:31.834Z,11.38
2023-12-21T23:21:59.298Z,15.20
2023-12-21T23:24:27.081Z,13.73
2023-12-21T23:26:54.558Z,14.97
2023-12-21T23:29:23.587Z,14.80
2023-12-21T23:31:51.466Z,13.52
2023-12-21T23:34:19.179Z,11.73
2023-12-21T23:36:46.780Z,14.40
2023-12-21T23:39:14.629Z,13.63
2023-12-21T23:41:42.515Z,17.37
2023-12-21T23:44:10.784Z,15.68
2023-12-21T23:46:38.613Z,16.05
2023-12-21T23:49:06.266Z,13.50
2023-12-21T23:51:33.979Z,12.70
2023-12-21T23:54:01.779Z,15.18
2023-12-21T23:56:29.265Z,13.13
2023-12-21T23:58:56.874Z,10.80
